Time;durP1;ratioP1;P1;durP2;ratioP2;P2;SDS_P1;SDS_P2;PMS_P1;PMS_P2;Temp;Humidity;BMP_temperature;BMP_pressure;BME280_temperature;BME280_humidity;BME280_pressure;Samples;Min_cycle;Max_cycle;Signal;HPM_P1;HPM_P2
2023/02/22 00:00:00;;;;;;;1.3;1.3;;;;;;;7.1;100.0;101320;;;;
2023/02/22 00:01:06;;;;;;;1.3;1.3;;;;;;;6.7;100.0;101320;;;;
2023/02/22 00:03:00;;;;;;;1.3;1.3;;;;;;;6.5;100.0;101320;;;;
2023/02/22 00:04:01;;;;;;;1.3;1.3;;;;;;;6.5;100.0;101320;;;;
2023/02/22 00:05:00;;;;;;;1.3;1.3;;;;;;;6.5;100.0;101320;;;;
2023/02/22 00:06:03;;;;;;;1.3;1.3;;;;;;;6.5;100.0;101320;;;;
2023/02/22 00:07:00;;;;;;;1.3;1.3;;;;;;;6.4;100.0;101320;;;;
2023/02/22 00:08:00;;;;;;;1.3;1.3;;;;;;;6.4;100.0;101320;;;;
2023/02/22 00:09:01;;;;;;;1.3;1.3;;;;;;;6.4;100.0;101330;;;;
2023/02/22 00:10:00;;;;;;;1.3;1.3;;;;;;;6.4;100.0;101330;;;;
2023/02/22 00:11:01;;;;;;;1.3;1.3;;;;;;;6.6;100.0;101320;;;;
2023/02/22 00:12:01;;;;;;;1.3;1.3;;;;;;;6.6;100.0;101320;;;;
2023/02/22 00:13:00;;;;;;;1.3;1.3;;;;;;;6.7;100.0;101320;;;;
2023/02/22 00:14:01;;;;;;;1.3;1.3;;;;;;;6.7;100.0;101320;;;;
2023/02/22 00:15:00;;;;;;;1.6;1.6;;;;;;;6.7;100.0;101320;;;;
2023/02/22 00:16:01;;;;;;;1.6;1.6;;;;;;;6.7;100.0;101320;;;;
2023/02/22 00:17:01;;;;;;;1.6;1.6;;;;;;;6.7;100.0;101320;;;;
2023/02/22 00:18:01;;;;;;;1.6;1.6;;;;;;;6.7;100.0;101320;;;;
2023/02/22 00:19:00;;;;;;;1.6;1.6;;;;;;;6.7;100.0;101320;;;;
2023/02/22 00:20:00;;;;;;;1.6;1.6;;;;;;;6.7;100.0;101320;;;;
2023/02/22 00:21:00;;;;;;;1.6;1.6;;;;;;;6.8;100.0;101320;;;;
2023/02/22 00:22:00;;;;;;;1.6;1.6;;;;;;;6.8;100.0;101320;;;;
2023/02/22 00:23:00;;;;;;;1.6;1.6;;;;;;;6.7;100.0;101320;;;;
2023/02/22 00:24:15;;;;;;;1.6;1.6;;;;;;;6.7;100.0;101320;;;;
2023/02/22 00:25:00;;;;;;;1.6;1.6;;;;;;;6.7;100.0;101320;;;;
2023/02/22 00:26:00;;;;;;;1.6;1.6;;;;;;;6.7;100.0;101320;;;;
2023/02/22 00:27:02;;;;;;;1.6;1.6;;;;;;;6.7;100.0;101320;;;;
2023/02/22 00:28:01;;;;;;;1.6;1.6;;;;;;;6.7;100.0;101320;;;;
2023/02/22 00:29:00;;;;;;;1.6;1.6;;;;;;;6.8;100.0;101320;;;;
2023/02/22 00:30:00;;;;;;;1.6;1.6;;;;;;;6.8;100.0;101320;;;;
2023/02/22 00:31:00;;;;;;;1.6;1.6;;;;;;;6.8;100.0;101320;;;;
2023/02/22 00:32:00;;;;;;;1.6;1.6;;;;;;;6.8;100.0;101320;;;;
2023/02/22 00:33:00;;;;;;;1.6;1.6;;;;;;;6.7;100.0;101330;;;;
2023/02/22 00:34:00;;;;;;;1.6;1.6;;;;;;;6.7;100.0;101330;;;;
2023/02/22 00:35:00;;;;;;;1.6;1.6;;;;;;;6.8;100.0;101320;;;;
2023/02/22 00:36:00;;;;;;;1.6;1.6;;;;;;;6.8;100.0;101320;;;;
2023/02/22 00:37:03;;;;;;;1.6;1.6;;;;;;;6.6;100.0;101320;;;;
2023/02/22 00:38:01;;;;;;;1.6;1.6;;;;;;;6.6;100.0;101320;;;;
2023/02/22 00:39:00;;;;;;;1.6;1.6;;;;;;;6.6;100.0;101330;;;;
2023/02/22 00:40:00;;;;;;;1.6;1.6;;;;;;;6.6;100.0;101330;;;;
2023/02/22 00:41:00;;;;;;;1.6;1.6;;;;;;;6.6;100.0;101320;;;;
2023/02/22 00:42:00;;;;;;;1.6;1.6;;;;;;;6.6;100.0;101320;;;;
2023/02/22 00:43:01;;;;;;;1.6;1.6;;;;;;;6.7;100.0;101320;;;;
2023/02/22 00:44:00;;;;;;;1.6;1.6;;;;;;;6.7;100.0;101320;;;;
2023/02/22 00:45:00;;;;;;;1.6;1.6;;;;;;;6.6;100.0;101310;;;;
2023/02/22 00:46:00;;;;;;;1.6;1.6;;;;;;;6.6;100.0;101310;;;;
2023/02/22 00:47:00;;;;;;;1.6;1.6;;;;;;;6.7;100.0;101320;;;;
2023/02/22 00:48:01;;;;;;;1.6;1.6;;;;;;;6.7;100.0;101320;;;;
2023/02/22 00:49:00;;;;;;;1.6;1.6;;;;;;;6.8;100.0;101310;;;;
2023/02/22 00:50:00;;;;;;;1.6;1.6;;;;;;;6.8;100.0;101310;;;;
2023/02/22 00:51:00;;;;;;;1.6;1.6;;;;;;;6.8;100.0;101310;;;;
2023/02/22 00:52:00;;;;;;;1.6;1.6;;;;;;;6.8;100.0;101310;;;;
2023/02/22 00:53:02;;;;;;;1.6;1.6;;;;;;;6.8;100.0;101310;;;;
2023/02/22 00:54:00;;;;;;;1.6;1.6;;;;;;;6.8;100.0;101310;;;;
2023/02/22 00:55:01;;;;;;;1.6;1.6;;;;;;;6.7;100.0;101310;;;;
2023/02/22 00:56:00;;;;;;;1.6;1.6;;;;;;;6.7;100.0;101310;;;;
2023/02/22 00:57:01;;;;;;;1.6;1.6;;;;;;;6.5;100.0;101310;;;;
2023/02/22 00:58:01;;;;;;;1.6;1.6;;;;;;;6.5;100.0;101310;;;;
2023/02/22 00:59:00;;;;;;;1.6;1.6;;;;;;;6.6;100.0;101300;;;;
2023/02/22 01:00:10;;;;;;;1.6;1.6;;;;;;;6.6;100.0;101300;;;;
2023/02/22 01:01:00;;;;;;;1.6;1.6;;;;;;;6.7;100.0;101300;;;;
2023/02/22 01:02:00;;;;;;;1.6;1.6;;;;;;;6.7;100.0;101300;;;;
2023/02/22 01:03:00;;;;;;;1.6;1.6;;;;;;;6.7;100.0;101300;;;;
2023/02/22 01:04:00;;;;;;;1.6;1.6;;;;;;;6.7;100.0;101300;;;;
2023/02/22 01:05:00;;;;;;;1.6;1.6;;;;;;;6.7;100.0;101300;;;;
2023/02/22 01:06:01;;;;;;;1.6;1.6;;;;;;;6.7;100.0;101300;;;;
2023/02/22 01:07:00;;;;;;;1.6;1.6;;;;;;;6.6;100.0;101300;;;;
2023/02/22 01:08:00;;;;;;;1.6;1.6;;;;;;;6.6;100.0;101300;;;;
2023/02/22 01:09:01;;;;;;;1.6;1.6;;;;;;;6.6;100.0;101300;;;;
2023/02/22 01:10:01;;;;;;;1.6;1.6;;;;;;;6.6;100.0;101300;;;;
2023/02/22 01:11:00;;;;;;;1.6;1.6;;;;;;;6.6;100.0;101300;;;;
2023/02/22 01:12:01;;;;;;;1.6;1.6;;;;;;;6.6;100.0;101300;;;;
2023/02/22 01:13:03;;;;;;;1.6;1.6;;;;;;;6.4;100.0;101300;;;;
2023/02/22 01:14:00;;;;;;;1.6;1.6;;;;;;;6.4;100.0;101300;;;;
2023/02/22 01:15:02;;;;;;;1.6;1.6;;;;;;;6.5;100.0;101290;;;;
2023/02/22 01:16:01;;;;;;;1.6;1.6;;;;;;;6.5;100.0;101290;;;;
2023/02/22 01:17:00;;;;;;;1.6;1.6;;;;;;;6.4;100.0;101300;;;;
2023/02/22 01:18:00;;;;;;;1.6;1.6;;;;;;;6.4;100.0;101300;;;;
2023/02/22 01:19:00;;;;;;;1.6;1.6;;;;;;;6.4;100.0;101290;;;;
2023/02/22 01:20:00;;;;;;;1.6;1.6;;;;;;;6.4;100.0;101290;;;;
2023/02/22 01:21:01;;;;;;;1.6;1.6;;;;;;;6.6;100.0;101290;;;;
2023/02/22 01:22:00;;;;;;;1.6;1.6;;;;;;;6.6;100.0;101290;;;;
2023/02/22 01:23:02;;;;;;;1.6;1.6;;;;;;;6.5;100.0;101290;;;;
2023/02/22 01:24:00;;;;;;;1.6;1.6;;;;;;;6.5;100.0;101290;;;;
2023/02/22 01:25:00;;;;;;;1.6;1.6;;;;;;;6.4;100.0;101290;;;;
2023/02/22 01:26:01;;;;;;;1.6;1.6;;;;;;;6.4;100.0;101290;;;;
2023/02/22 01:27:01;;;;;;;1.6;1.6;;;;;;;6.5;100.0;101290;;;;
2023/02/22 01:28:01;;;;;;;1.6;1.6;;;;;;;6.5;100.0;101290;;;;
2023/02/22 01:29:00;;;;;;;1.6;1.6;;;;;;;6.6;100.0;101290;;;;
2023/02/22 01:30:01;;;;;;;1.6;1.6;;;;;;;6.6;100.0;101290;;;;
2023/02/22 01:31:01;;;;;;;1.6;1.6;;;;;;;6.7;100.0;101280;;;;
2023/02/22 01:32:00;;;;;;;1.6;1.6;;;;;;;6.7;100.0;101280;;;;
2023/02/22 01:33:01;;;;;;;1.6;1.6;;;;;;;6.6;100.0;101280;;;;
2023/02/22 01:34:00;;;;;;;1.6;1.6;;;;;;;6.6;100.0;101280;;;;
2023/02/22 01:35:03;;;;;;;1.8;1.8;;;;;;;6.6;100.0;101280;;;;
2023/02/22 01:36:00;;;;;;;1.8;1.8;;;;;;;6.6;100.0;101280;;;;
2023/02/22 01:37:00;;;;;;;1.8;1.8;;;;;;;6.5;100.0;101270;;;;
2023/02/22 01:38:00;;;;;;;1.8;1.8;;;;;;;6.5;100.0;101270;;;;
2023/02/22 01:39:00;;;;;;;1.8;1.8;;;;;;;6.7;100.0;101270;;;;
2023/02/22 01:40:00;;;;;;;1.8;1.8;;;;;;;6.7;100.0;101270;;;;
2023/02/22 01:41:00;;;;;;;1.8;1.8;;;;;;;6.7;100.0;101270;;;;
2023/02/22 01:42:00;;;;;;;1.8;1.8;;;;;;;6.7;100.0;101270;;;;
2023/02/22 01:43:01;;;;;;;1.8;1.8;;;;;;;6.7;100.0;101270;;;;
2023/02/22 01:44:10;;;;;;;1.8;1.8;;;;;;;6.7;100.0;101270;;;;
2023/02/22 01:45:10;;;;;;;1.8;1.8;;;;;;;6.6;100.0;101270;;;;
2023/02/22 01:46:02;;;;;;;1.8;1.8;;;;;;;6.6;100.0;101270;;;;
2023/02/22 01:47:01;;;;;;;1.8;1.8;;;;;;;6.6;100.0;101260;;;;
2023/02/22 01:48:03;;;;;;;1.8;1.8;;;;;;;6.6;100.0;101260;;;;
2023/02/22 01:49:02;;;;;;;1.8;1.8;;;;;;;6.5;100.0;101260;;;;
2023/02/22 01:50:00;;;;;;;1.8;1.8;;;;;;;6.5;100.0;101260;;;;
2023/02/22 01:51:10;;;;;;;1.8;1.8;;;;;;;6.6;100.0;101260;;;;
2023/02/22 01:52:02;;;;;;;1.8;1.8;;;;;;;6.6;100.0;101260;;;;
2023/02/22 01:53:01;;;;;;;1.8;1.8;;;;;;;6.7;100.0;101260;;;;
2023/02/22 01:54:04;;;;;;;1.8;1.8;;;;;;;6.7;100.0;101260;;;;
2023/02/22 01:55:00;;;;;;;1.4;1.4;;;;;;;6.7;100.0;101260;;;;
2023/02/22 01:56:01;;;;;;;1.4;1.4;;;;;;;6.7;100.0;101260;;;;
2023/02/22 01:57:10;;;;;;;1.4;1.4;;;;;;;6.5;100.0;101260;;;;
2023/02/22 01:58:01;;;;;;;1.4;1.4;;;;;;;6.5;100.0;101260;;;;
2023/02/22 01:59:02;;;;;;;1.4;1.4;;;;;;;6.5;100.0;101260;;;;
2023/02/22 02:00:08;;;;;;;1.4;1.4;;;;;;;6.5;100.0;101260;;;;
2023/02/22 02:01:00;;;;;;;1.4;1.4;;;;;;;6.5;100.0;101260;;;;
2023/02/22 02:02:00;;;;;;;1.4;1.4;;;;;;;6.5;100.0;101260;;;;
2023/02/22 02:03:05;;;;;;;1.4;1.4;;;;;;;6.3;100.0;101260;;;;
2023/02/22 02:04:02;;;;;;;1.4;1.4;;;;;;;6.3;100.0;101260;;;;
2023/02/22 02:05:00;;;;;;;1.4;1.4;;;;;;;6.4;100.0;101260;;;;
2023/02/22 02:06:02;;;;;;;1.4;1.4;;;;;;;6.4;100.0;101260;;;;
2023/02/22 02:07:02;;;;;;;1.4;1.4;;;;;;;6.4;100.0;101260;;;;
2023/02/22 02:08:04;;;;;;;1.4;1.4;;;;;;;6.4;100.0;101260;;;;
2023/02/22 02:09:09;;;;;;;1.4;1.4;;;;;;;6.5;100.0;101250;;;;
2023/02/22 02:10:02;;;;;;;1.4;1.4;;;;;;;6.5;100.0;101250;;;;
2023/02/22 02:11:01;;;;;;;1.4;1.4;;;;;;;6.6;100.0;101260;;;;
2023/02/22 02:12:01;;;;;;;1.4;1.4;;;;;;;6.6;100.0;101260;;;;
2023/02/22 02:13:02;;;;;;;1.4;1.4;;;;;;;6.5;100.0;101250;;;;
2023/02/22 02:14:00;;;;;;;1.4;1.4;;;;;;;6.5;100.0;101250;;;;
2023/02/22 02:15:10;;;;;;;1.6;1.6;;;;;;;6.5;100.0;101250;;;;
2023/02/22 02:16:00;;;;;;;1.6;1.6;;;;;;;6.5;100.0;101250;;;;
2023/02/22 02:17:00;;;;;;;1.6;1.6;;;;;;;6.4;100.0;101240;;;;
2023/02/22 02:18:03;;;;;;;1.6;1.6;;;;;;;6.4;100.0;101240;;;;
2023/02/22 02:19:00;;;;;;;1.6;1.6;;;;;;;6.4;100.0;101240;;;;
2023/02/22 02:20:10;;;;;;;1.6;1.6;;;;;;;6.4;100.0;101240;;;;
2023/02/22 02:21:10;;;;;;;1.6;1.6;;;;;;;6.3;100.0;101240;;;;
2023/02/22 02:22:10;;;;;;;1.6;1.6;;;;;;;6.3;100.0;101240;;;;
2023/02/22 02:23:07;;;;;;;1.6;1.6;;;;;;;6.2;100.0;101240;;;;
2023/02/22 02:24:03;;;;;;;1.6;1.6;;;;;;;6.2;100.0;101240;;;;
2023/02/22 02:25:08;;;;;;;1.6;1.6;;;;;;;6.5;100.0;101240;;;;
2023/02/22 02:26:10;;;;;;;1.6;1.6;;;;;;;6.5;100.0;101240;;;;
2023/02/22 02:27:01;;;;;;;1.6;1.6;;;;;;;6.4;100.0;101230;;;;
2023/02/22 02:28:10;;;;;;;1.6;1.6;;;;;;;6.4;100.0;101230;;;;
2023/02/22 02:29:01;;;;;;;1.6;1.6;;;;;;;6.4;100.0;101230;;;;
2023/02/22 02:30:10;;;;;;;1.6;1.6;;;;;;;6.4;100.0;101230;;;;
2023/02/22 02:31:07;;;;;;;1.6;1.6;;;;;;;6.3;100.0;101230;;;;
2023/02/22 02:32:10;;;;;;;1.6;1.6;;;;;;;6.3;100.0;101230;;;;
2023/02/22 02:33:10;;;;;;;1.6;1.6;;;;;;;6.2;100.0;101220;;;;
2023/02/22 02:34:09;;;;;;;1.6;1.6;;;;;;;6.2;100.0;101220;;;;
2023/02/22 02:35:08;;;;;;;1.6;1.6;;;;;;;6.1;100.0;101220;;;;
2023/02/22 02:36:03;;;;;;;1.6;1.6;;;;;;;6.1;100.0;101220;;;;
2023/02/22 02:37:07;;;;;;;1.6;1.6;;;;;;;6.3;100.0;101220;;;;
2023/02/22 02:38:00;;;;;;;1.6;1.6;;;;;;;6.3;100.0;101220;;;;
2023/02/22 02:39:10;;;;;;;1.6;1.6;;;;;;;6.3;100.0;101210;;;;
2023/02/22 02:40:11;;;;;;;1.6;1.6;;;;;;;6.3;100.0;101210;;;;
2023/02/22 02:41:07;;;;;;;1.6;1.6;;;;;;;6.4;100.0;101210;;;;
2023/02/22 02:42:04;;;;;;;1.6;1.6;;;;;;;6.4;100.0;101210;;;;
2023/02/22 02:43:06;;;;;;;1.6;1.6;;;;;;;6.3;100.0;101210;;;;
2023/02/22 02:44:03;;;;;;;1.6;1.6;;;;;;;6.3;100.0;101210;;;;
2023/02/22 02:45:04;;;;;;;1.6;1.6;;;;;;;6.3;100.0;101210;;;;
2023/02/22 02:46:04;;;;;;;1.6;1.6;;;;;;;6.3;100.0;101210;;;;
2023/02/22 02:47:02;;;;;;;1.6;1.6;;;;;;;6.3;100.0;101210;;;;
2023/02/22 02:48:01;;;;;;;1.6;1.6;;;;;;;6.3;100.0;101210;;;;
2023/02/22 02:49:04;;;;;;;1.6;1.6;;;;;;;6.3;100.0;101210;;;;
2023/02/22 02:50:05;;;;;;;1.6;1.6;;;;;;;6.3;100.0;101210;;;;
2023/02/22 02:51:02;;;;;;;1.6;1.6;;;;;;;6.1;100.0;101200;;;;
2023/02/22 02:52:02;;;;;;;1.6;1.6;;;;;;;6.1;100.0;101200;;;;
2023/02/22 02:53:03;;;;;;;1.6;1.6;;;;;;;6.3;100.0;101200;;;;
2023/02/22 02:54:00;;;;;;;1.6;1.6;;;;;;;6.3;100.0;101200;;;;
2023/02/22 02:55:02;;;;;;;1.4;1.4;;;;;;;6.1;100.0;101190;;;;
2023/02/22 02:56:00;;;;;;;1.4;1.4;;;;;;;6.1;100.0;101190;;;;
2023/02/22 02:57:01;;;;;;;1.4;1.4;;;;;;;6.1;100.0;101190;;;;
2023/02/22 02:58:00;;;;;;;1.4;1.4;;;;;;;6.1;100.0;101190;;;;
2023/02/22 02:59:00;;;;;;;1.4;1.4;;;;;;;6.1;100.0;101190;;;;
2023/02/22 03:00:00;;;;;;;1.4;1.4;;;;;;;6.1;100.0;101190;;;;
2023/02/22 03:01:03;;;;;;;1.4;1.4;;;;;;;6.0;100.0;101200;;;;
2023/02/22 03:02:12;;;;;;;1.4;1.4;;;;;;;6.0;100.0;101200;;;;
2023/02/22 03:03:00;;;;;;;1.4;1.4;;;;;;;6.2;100.0;101200;;;;
2023/02/22 03:04:04;;;;;;;1.4;1.4;;;;;;;6.2;100.0;101200;;;;
2023/02/22 03:05:06;;;;;;;1.4;1.4;;;;;;;6.1;100.0;101200;;;;
2023/02/22 03:06:00;;;;;;;1.4;1.4;;;;;;;6.1;100.0;101200;;;;
2023/02/22 03:07:10;;;;;;;1.4;1.4;;;;;;;6.2;100.0;101200;;;;
2023/02/22 03:08:07;;;;;;;1.4;1.4;;;;;;;6.2;100.0;101200;;;;
2023/02/22 03:09:07;;;;;;;1.4;1.4;;;;;;;6.0;100.0;101200;;;;
2023/02/22 03:10:12;;;;;;;1.4;1.4;;;;;;;6.0;100.0;101200;;;;
2023/02/22 03:11:01;;;;;;;1.4;1.4;;;;;;;6.1;100.0;101200;;;;
2023/02/22 03:12:10;;;;;;;1.4;1.4;;;;;;;6.1;100.0;101200;;;;
2023/02/22 03:13:00;;;;;;;1.4;1.4;;;;;;;6.1;100.0;101200;;;;
2023/02/22 03:14:10;;;;;;;1.7;1.7;;;;;;;6.1;100.0;101200;;;;
2023/02/22 03:15:10;;;;;;;1.7;1.7;;;;;;;6.1;100.0;101200;;;;
2023/02/22 03:16:01;;;;;;;1.7;1.7;;;;;;;6.1;100.0;101200;;;;
2023/02/22 03:17:11;;;;;;;1.7;1.7;;;;;;;6.0;100.0;101200;;;;
2023/02/22 03:18:05;;;;;;;1.7;1.7;;;;;;;6.0;100.0;101200;;;;
2023/02/22 03:19:10;;;;;;;1.7;1.7;;;;;;;6.1;100.0;101190;;;;
2023/02/22 03:20:03;;;;;;;1.7;1.7;;;;;;;6.1;100.0;101190;;;;
2023/02/22 03:21:09;;;;;;;1.7;1.7;;;;;;;6.2;100.0;101190;;;;
2023/02/22 03:22:07;;;;;;;1.7;1.7;;;;;;;6.2;100.0;101190;;;;
2023/02/22 03:23:03;;;;;;;1.7;1.7;;;;;;;6.1;100.0;101190;;;;
2023/02/22 03:24:10;;;;;;;1.7;1.7;;;;;;;6.1;100.0;101190;;;;
2023/02/22 03:25:05;;;;;;;1.7;1.7;;;;;;;5.9;100.0;101190;;;;
2023/02/22 03:26:04;;;;;;;1.7;1.7;;;;;;;5.9;100.0;101190;;;;
2023/02/22 03:27:10;;;;;;;1.7;1.7;;;;;;;5.9;100.0;101190;;;;
2023/02/22 03:28:03;;;;;;;1.7;1.7;;;;;;;5.9;100.0;101190;;;;
2023/02/22 03:29:03;;;;;;;1.7;1.7;;;;;;;6.0;100.0;101190;;;;
2023/02/22 03:30:02;;;;;;;1.7;1.7;;;;;;;6.0;100.0;101190;;;;
2023/02/22 03:31:03;;;;;;;1.7;1.7;;;;;;;5.9;100.0;101190;;;;
2023/02/22 03:32:02;;;;;;;1.7;1.7;;;;;;;5.9;100.0;101190;;;;
2023/02/22 03:33:07;;;;;;;1.7;1.7;;;;;;;6.0;100.0;101180;;;;
2023/02/22 03:34:03;;;;;;;1.6;1.6;;;;;;;6.0;100.0;101180;;;;
2023/02/22 03:35:05;;;;;;;1.6;1.6;;;;;;;5.8;100.0;101190;;;;
2023/02/22 03:36:04;;;;;;;1.6;1.6;;;;;;;5.8;100.0;101190;;;;
2023/02/22 03:37:05;;;;;;;1.6;1.6;;;;;;;5.7;100.0;101180;;;;
2023/02/22 03:38:02;;;;;;;1.6;1.6;;;;;;;5.7;100.0;101180;;;;
2023/02/22 03:39:03;;;;;;;1.6;1.6;;;;;;;5.7;100.0;101180;;;;
2023/02/22 03:40:12;;;;;;;1.6;1.6;;;;;;;5.7;100.0;101180;;;;
2023/02/22 03:41:01;;;;;;;1.6;1.6;;;;;;;5.7;100.0;101180;;;;
2023/02/22 03:42:03;;;;;;;1.6;1.6;;;;;;;5.7;100.0;101180;;;;
2023/02/22 03:43:05;;;;;;;1.6;1.6;;;;;;;5.7;100.0;101180;;;;
2023/02/22 03:44:05;;;;;;;1.6;1.6;;;;;;;5.7;100.0;101180;;;;
2023/02/22 03:45:03;;;;;;;1.6;1.6;;;;;;;5.8;100.0;101180;;;;
2023/02/22 03:46:02;;;;;;;1.6;1.6;;;;;;;5.8;100.0;101180;;;;
2023/02/22 03:47:05;;;;;;;1.6;1.6;;;;;;;5.8;100.0;101170;;;;
2023/02/22 03:48:03;;;;;;;1.6;1.6;;;;;;;5.8;100.0;101170;;;;
2023/02/22 03:49:05;;;;;;;1.6;1.6;;;;;;;5.8;100.0;101170;;;;
2023/02/22 03:50:05;;;;;;;1.6;1.6;;;;;;;5.8;100.0;101170;;;;
2023/02/22 03:51:03;;;;;;;1.6;1.6;;;;;;;5.8;100.0;101170;;;;
2023/02/22 03:52:01;;;;;;;1.6;1.6;;;;;;;5.8;100.0;101170;;;;
2023/02/22 03:53:00;;;;;;;1.6;1.6;;;;;;;5.8;100.0;101170;;;;
2023/02/22 03:54:01;;;;;;;1.8;1.8;;;;;;;5.8;100.0;101170;;;;
2023/02/22 03:55:01;;;;;;;1.8;1.8;;;;;;;5.8;100.0;101160;;;;
2023/02/22 03:56:01;;;;;;;1.8;1.8;;;;;;;5.8;100.0;101160;;;;
2023/02/22 03:57:10;;;;;;;1.8;1.8;;;;;;;5.7;100.0;101160;;;;
2023/02/22 03:58:03;;;;;;;1.8;1.8;;;;;;;5.7;100.0;101160;;;;
2023/02/22 03:59:02;;;;;;;1.8;1.8;;;;;;;5.8;100.0;101160;;;;
2023/02/22 04:00:00;;;;;;;1.8;1.8;;;;;;;5.8;100.0;101160;;;;
2023/02/22 04:01:00;;;;;;;1.8;1.8;;;;;;;5.6;100.0;101160;;;;
2023/02/22 04:02:00;;;;;;;1.8;1.8;;;;;;;5.6;100.0;101160;;;;
2023/02/22 04:03:00;;;;;;;1.8;1.8;;;;;;;5.7;100.0;101160;;;;
2023/02/22 04:04:00;;;;;;;1.8;1.8;;;;;;;5.7;100.0;101160;;;;
2023/02/22 04:05:00;;;;;;;1.8;1.8;;;;;;;5.6;100.0;101150;;;;
2023/02/22 04:06:00;;;;;;;1.8;1.8;;;;;;;5.6;100.0;101150;;;;
2023/02/22 04:07:00;;;;;;;1.8;1.8;;;;;;;5.7;100.0;101150;;;;
2023/02/22 04:08:00;;;;;;;1.8;1.8;;;;;;;5.7;100.0;101150;;;;
2023/02/22 04:09:00;;;;;;;1.8;1.8;;;;;;;5.7;100.0;101150;;;;
2023/02/22 04:10:02;;;;;;;1.8;1.8;;;;;;;5.7;100.0;101150;;;;
2023/02/22 04:11:00;;;;;;;1.8;1.8;;;;;;;5.6;100.0;101160;;;;
2023/02/22 04:12:00;;;;;;;1.8;1.8;;;;;;;5.6;100.0;101160;;;;
2023/02/22 04:13:00;;;;;;;1.8;1.8;;;;;;;5.5;100.0;101150;;;;
2023/02/22 04:14:00;;;;;;;3.2;3.0;;;;;;;5.5;100.0;101150;;;;
2023/02/22 04:15:00;;;;;;;3.2;3.0;;;;;;;5.7;100.0;101150;;;;
2023/02/22 04:16:00;;;;;;;3.2;3.0;;;;;;;5.7;100.0;101150;;;;
2023/02/22 04:17:00;;;;;;;3.2;3.0;;;;;;;5.7;100.0;101150;;;;
2023/02/22 04:18:00;;;;;;;3.2;3.0;;;;;;;5.7;100.0;101150;;;;
2023/02/22 04:19:00;;;;;;;3.2;3.0;;;;;;;5.6;100.0;101140;;;;
2023/02/22 04:20:00;;;;;;;3.2;3.0;;;;;;;5.6;100.0;101140;;;;
2023/02/22 04:21:00;;;;;;;3.2;3.0;;;;;;;5.7;100.0;101140;;;;
2023/02/22 04:22:00;;;;;;;3.2;3.0;;;;;;;5.7;100.0;101140;;;;
2023/02/22 04:23:00;;;;;;;3.2;3.0;;;;;;;5.6;100.0;101140;;;;
2023/02/22 04:24:00;;;;;;;3.2;3.0;;;;;;;5.6;100.0;101140;;;;
2023/02/22 04:25:00;;;;;;;3.2;3.0;;;;;;;5.6;100.0;101130;;;;
2023/02/22 04:26:00;;;;;;;3.2;3.0;;;;;;;5.6;100.0;101130;;;;
2023/02/22 04:27:00;;;;;;;3.2;3.0;;;;;;;5.7;100.0;101120;;;;
2023/02/22 04:28:00;;;;;;;3.2;3.0;;;;;;;5.7;100.0;101120;;;;
2023/02/22 04:29:00;;;;;;;3.2;3.0;;;;;;;5.7;100.0;101120;;;;
2023/02/22 04:30:00;;;;;;;3.2;3.0;;;;;;;5.7;100.0;101120;;;;
2023/02/22 04:31:00;;;;;;;3.2;3.0;;;;;;;5.7;100.0;101120;;;;
2023/02/22 04:32:00;;;;;;;3.2;3.0;;;;;;;5.7;100.0;101120;;;;
2023/02/22 04:33:00;;;;;;;3.2;3.0;;;;;;;5.5;100.0;101110;;;;
2023/02/22 04:34:02;;;;;;;1.8;1.8;;;;;;;5.5;100.0;101110;;;;
2023/02/22 04:35:00;;;;;;;1.8;1.8;;;;;;;5.3;100.0;101110;;;;
2023/02/22 04:36:00;;;;;;;1.8;1.8;;;;;;;5.3;100.0;101110;;;;
2023/02/22 04:37:00;;;;;;;1.8;1.8;;;;;;;5.4;100.0;101110;;;;
2023/02/22 04:38:01;;;;;;;1.8;1.8;;;;;;;5.4;100.0;101110;;;;
2023/02/22 04:39:00;;;;;;;1.8;1.8;;;;;;;5.4;100.0;101100;;;;
2023/02/22 04:40:01;;;;;;;1.8;1.8;;;;;;;5.4;100.0;101100;;;;
2023/02/22 04:41:00;;;;;;;1.8;1.8;;;;;;;5.5;100.0;101100;;;;
2023/02/22 04:42:00;;;;;;;1.8;1.8;;;;;;;5.5;100.0;101100;;;;
2023/02/22 04:43:00;;;;;;;1.8;1.8;;;;;;;5.1;100.0;101100;;;;
2023/02/22 04:44:00;;;;;;;1.8;1.8;;;;;;;5.1;100.0;101100;;;;
2023/02/22 04:45:00;;;;;;;1.8;1.8;;;;;;;5.1;100.0;101100;;;;
2023/02/22 04:46:00;;;;;;;1.8;1.8;;;;;;;5.1;100.0;101100;;;;
2023/02/22 04:47:00;;;;;;;1.8;1.8;;;;;;;4.9;100.0;101100;;;;
2023/02/22 04:48:00;;;;;;;1.8;1.8;;;;;;;4.9;100.0;101100;;;;
2023/02/22 04:49:00;;;;;;;1.8;1.8;;;;;;;5.1;100.0;101100;;;;
2023/02/22 04:50:00;;;;;;;1.8;1.8;;;;;;;5.1;100.0;101100;;;;
2023/02/22 04:51:00;;;;;;;1.8;1.8;;;;;;;5.3;100.0;101110;;;;
2023/02/22 04:52:00;;;;;;;1.8;1.8;;;;;;;5.3;100.0;101110;;;;
2023/02/22 04:53:00;;;;;;;1.8;1.8;;;;;;;5.2;100.0;101100;;;;
2023/02/22 04:54:00;;;;;;;1.8;1.8;;;;;;;5.2;100.0;101100;;;;
2023/02/22 04:55:00;;;;;;;1.8;1.8;;;;;;;5.1;100.0;101100;;;;
2023/02/22 04:56:00;;;;;;;1.8;1.8;;;;;;;5.1;100.0;101100;;;;
2023/02/22 04:57:00;;;;;;;1.8;1.8;;;;;;;5.3;100.0;101110;;;;
2023/02/22 04:58:00;;;;;;;1.8;1.8;;;;;;;5.3;100.0;101110;;;;
2023/02/22 04:59:00;;;;;;;1.8;1.8;;;;;;;5.3;100.0;101110;;;;
2023/02/22 05:00:00;;;;;;;1.8;1.8;;;;;;;5.3;100.0;101110;;;;
2023/02/22 05:01:00;;;;;;;1.8;1.8;;;;;;;5.4;100.0;101100;;;;
2023/02/22 05:02:00;;;;;;;1.8;1.8;;;;;;;5.4;100.0;101100;;;;
2023/02/22 05:03:00;;;;;;;1.8;1.8;;;;;;;5.5;100.0;101100;;;;
2023/02/22 05:04:01;;;;;;;1.8;1.8;;;;;;;5.5;100.0;101100;;;;
2023/02/22 05:05:00;;;;;;;1.8;1.8;;;;;;;5.5;100.0;101090;;;;
2023/02/22 05:06:00;;;;;;;1.8;1.8;;;;;;;5.5;100.0;101090;;;;
2023/02/22 05:07:00;;;;;;;1.8;1.8;;;;;;;5.4;100.0;101100;;;;
2023/02/22 05:08:00;;;;;;;1.8;1.8;;;;;;;5.4;100.0;101100;;;;
2023/02/22 05:09:00;;;;;;;1.8;1.8;;;;;;;5.2;100.0;101090;;;;
2023/02/22 05:10:01;;;;;;;1.8;1.8;;;;;;;5.2;100.0;101090;;;;
2023/02/22 05:11:00;;;;;;;1.8;1.8;;;;;;;5.3;100.0;101090;;;;
2023/02/22 05:12:00;;;;;;;1.8;1.8;;;;;;;5.3;100.0;101090;;;;
2023/02/22 05:13:02;;;;;;;1.8;1.8;;;;;;;5.3;100.0;101100;;;;
2023/02/22 05:14:00;;;;;;;1.7;1.7;;;;;;;5.3;100.0;101100;;;;
2023/02/22 05:15:00;;;;;;;1.7;1.7;;;;;;;5.2;100.0;101090;;;;
2023/02/22 05:16:01;;;;;;;1.7;1.7;;;;;;;5.2;100.0;101090;;;;
2023/02/22 05:17:01;;;;;;;1.7;1.7;;;;;;;5.4;100.0;101090;;;;
2023/02/22 05:18:00;;;;;;;1.7;1.7;;;;;;;5.4;100.0;101090;;;;
2023/02/22 05:19:00;;;;;;;1.7;1.7;;;;;;;5.5;100.0;101090;;;;
2023/02/22 05:20:01;;;;;;;1.7;1.7;;;;;;;5.5;100.0;101090;;;;
2023/02/22 05:21:00;;;;;;;1.7;1.7;;;;;;;5.4;100.0;101080;;;;
2023/02/22 05:22:00;;;;;;;1.7;1.7;;;;;;;5.4;100.0;101080;;;;
2023/02/22 05:23:01;;;;;;;1.7;1.7;;;;;;;5.5;100.0;101090;;;;
2023/02/22 05:24:00;;;;;;;1.7;1.7;;;;;;;5.5;100.0;101090;;;;
2023/02/22 05:25:00;;;;;;;1.7;1.7;;;;;;;5.5;100.0;101100;;;;
2023/02/22 05:26:00;;;;;;;1.7;1.7;;;;;;;5.5;100.0;101100;;;;
2023/02/22 05:27:00;;;;;;;1.7;1.7;;;;;;;5.4;100.0;101090;;;;
2023/02/22 05:28:06;;;;;;;1.7;1.7;;;;;;;5.4;100.0;101090;;;;
2023/02/22 05:29:00;;;;;;;1.7;1.7;;;;;;;5.5;100.0;101090;;;;
2023/02/22 05:30:00;;;;;;;1.7;1.7;;;;;;;5.5;100.0;101090;;;;
2023/02/22 05:31:00;;;;;;;1.7;1.7;;;;;;;5.5;100.0;101080;;;;
2023/02/22 05:32:01;;;;;;;1.7;1.7;;;;;;;5.5;100.0;101080;;;;
2023/02/22 05:33:00;;;;;;;1.7;1.7;;;;;;;5.6;100.0;101080;;;;
2023/02/22 05:34:00;;;;;;;1.9;1.9;;;;;;;5.6;100.0;101080;;;;
2023/02/22 05:35:00;;;;;;;1.9;1.9;;;;;;;5.5;100.0;101080;;;;
2023/02/22 05:36:00;;;;;;;1.9;1.9;;;;;;;5.5;100.0;101080;;;;
2023/02/22 05:37:02;;;;;;;1.9;1.9;;;;;;;5.6;100.0;101080;;;;
2023/02/22 05:38:02;;;;;;;1.9;1.9;;;;;;;5.6;100.0;101080;;;;
2023/02/22 05:39:00;;;;;;;1.9;1.9;;;;;;;5.6;100.0;101080;;;;
2023/02/22 05:40:00;;;;;;;1.9;1.9;;;;;;;5.6;100.0;101080;;;;
2023/02/22 05:41:00;;;;;;;1.9;1.9;;;;;;;5.7;100.0;101080;;;;
2023/02/22 05:42:00;;;;;;;1.9;1.9;;;;;;;5.7;100.0;101080;;;;
2023/02/22 05:43:01;;;;;;;1.9;1.9;;;;;;;5.7;100.0;101070;;;;
2023/02/22 05:44:01;;;;;;;1.9;1.9;;;;;;;5.7;100.0;101070;;;;
2023/02/22 05:45:00;;;;;;;1.9;1.9;;;;;;;5.8;100.0;101070;;;;
2023/02/22 05:46:00;;;;;;;1.9;1.9;;;;;;;5.8;100.0;101070;;;;
2023/02/22 05:47:00;;;;;;;1.9;1.9;;;;;;;5.8;100.0;101070;;;;
2023/02/22 05:48:01;;;;;;;1.9;1.9;;;;;;;5.8;100.0;101070;;;;
2023/02/22 05:49:00;;;;;;;1.9;1.9;;;;;;;6.0;100.0;101070;;;;
2023/02/22 05:50:00;;;;;;;1.9;1.9;;;;;;;6.0;100.0;101070;;;;
2023/02/22 05:51:00;;;;;;;1.9;1.9;;;;;;;5.9;100.0;101070;;;;
2023/02/22 05:52:00;;;;;;;1.9;1.9;;;;;;;5.9;100.0;101070;;;;
2023/02/22 05:53:01;;;;;;;1.9;1.9;;;;;;;5.9;100.0;101070;;;;
2023/02/22 05:54:00;;;;;;;2.2;2.1;;;;;;;5.9;100.0;101070;;;;
2023/02/22 05:55:00;;;;;;;2.2;2.1;;;;;;;6.0;100.0;101060;;;;
2023/02/22 05:56:00;;;;;;;2.2;2.1;;;;;;;6.0;100.0;101060;;;;
2023/02/22 05:57:00;;;;;;;2.2;2.1;;;;;;;5.8;100.0;101060;;;;
2023/02/22 05:58:00;;;;;;;2.2;2.1;;;;;;;5.8;100.0;101060;;;;
2023/02/22 05:59:00;;;;;;;2.2;2.1;;;;;;;5.9;100.0;101050;;;;
2023/02/22 06:00:00;;;;;;;2.2;2.1;;;;;;;5.9;100.0;101050;;;;
2023/02/22 06:01:03;;;;;;;2.2;2.1;;;;;;;5.9;100.0;101060;;;;
2023/02/22 06:02:00;;;;;;;2.2;2.1;;;;;;;5.9;100.0;101060;;;;
2023/02/22 06:03:01;;;;;;;2.2;2.1;;;;;;;5.9;100.0;101050;;;;
2023/02/22 06:04:00;;;;;;;2.2;2.1;;;;;;;5.9;100.0;101050;;;;
2023/02/22 06:05:00;;;;;;;2.2;2.1;;;;;;;5.8;100.0;101050;;;;
2023/02/22 06:06:00;;;;;;;2.2;2.1;;;;;;;5.8;100.0;101050;;;;
2023/02/22 06:07:00;;;;;;;2.2;2.1;;;;;;;5.8;100.0;101040;;;;
2023/02/22 06:08:01;;;;;;;2.2;2.1;;;;;;;5.8;100.0;101040;;;;
2023/02/22 06:09:00;;;;;;;2.2;2.1;;;;;;;5.9;100.0;101040;;;;
2023/02/22 06:10:00;;;;;;;2.2;2.1;;;;;;;5.9;100.0;101040;;;;
2023/02/22 06:11:00;;;;;;;2.2;2.1;;;;;;;5.8;100.0;101040;;;;
2023/02/22 06:12:00;;;;;;;2.2;2.1;;;;;;;5.8;100.0;101040;;;;
2023/02/22 06:13:01;;;;;;;2.2;2.1;;;;;;;5.7;100.0;101040;;;;
2023/02/22 06:14:00;;;;;;;3.4;3.2;;;;;;;5.7;100.0;101040;;;;
2023/02/22 06:15:00;;;;;;;3.4;3.2;;;;;;;5.8;100.0;101030;;;;
2023/02/22 06:16:00;;;;;;;3.4;3.2;;;;;;;5.8;100.0;101030;;;;
2023/02/22 06:17:00;;;;;;;3.4;3.2;;;;;;;5.7;100.0;101030;;;;
2023/02/22 06:18:00;;;;;;;3.4;3.2;;;;;;;5.7;100.0;101030;;;;
2023/02/22 06:19:00;;;;;;;3.4;3.2;;;;;;;5.9;100.0;101030;;;;
2023/02/22 06:20:00;;;;;;;3.4;3.2;;;;;;;5.9;100.0;101030;;;;
2023/02/22 06:21:00;;;;;;;3.4;3.2;;;;;;;5.6;100.0;101030;;;;
2023/02/22 06:22:01;;;;;;;3.4;3.2;;;;;;;5.6;100.0;101030;;;;
2023/02/22 06:23:00;;;;;;;3.4;3.2;;;;;;;5.7;100.0;101040;;;;
2023/02/22 06:24:03;;;;;;;3.4;3.2;;;;;;;5.7;100.0;101040;;;;
2023/02/22 06:25:02;;;;;;;3.4;3.2;;;;;;;5.7;100.0;101030;;;;
2023/02/22 06:26:00;;;;;;;3.4;3.2;;;;;;;5.7;100.0;101030;;;;
2023/02/22 06:27:01;;;;;;;3.4;3.2;;;;;;;5.5;100.0;101030;;;;
2023/02/22 06:28:00;;;;;;;3.4;3.2;;;;;;;5.5;100.0;101030;;;;
2023/02/22 06:29:00;;;;;;;3.4;3.2;;;;;;;5.6;100.0;101030;;;;
2023/02/22 06:30:01;;;;;;;3.4;3.2;;;;;;;5.6;100.0;101030;;;;